Time;durP1;ratioP1;P1;durP2;ratioP2;P2;SDS_P1;SDS_P2;PMS_P1;PMS_P2;Temp;Humidity;BMP_temperature;BMP_pressure;BME280_temperature;BME280_humidity;BME280_pressure;Samples;Min_cycle;Max_cycle;Signal;HPM_P1;HPM_P2
2023/04/23 00:03:09;;;;;;;;;;;;;;;;;;12980843;19;20027;-67
2023/04/23 00:07:27;;;;;;;16.10;6.93;;;;;;;;;;12978533;19;19918;-66
2023/04/23 00:11:45;;;;;;;15.52;6.70;;;;;;;;;;12978606;19;20734;-67
2023/04/23 00:16:04;;;;;;;14.32;6.22;;;;;;;;;;12979813;19;20380;-66
2023/04/23 00:20:22;;;;;;;17.75;7.07;;;;;;;;;;12979982;19;20010;-66
2023/04/23 00:24:39;;;;;;;12.90;6.97;;;;;;;;;;12990164;19;20015;-66
2023/04/23 00:28:57;;;;;;;;;;;;;;;;;;12992735;19;20010;-67
2023/04/23 00:33:15;;;;;;;11.77;6.60;;;;;;;;;;12990149;19;20285;-66
2023/04/23 00:37:32;;;;;;;14.05;6.68;;;;;;;;;;12992299;19;20218;-66
2023/04/23 00:41:50;;;;;;;11.95;6.15;;;;;;;;;;12988855;19;20018;-66
2023/04/23 00:46:08;;;;;;;12.90;6.35;;;;;;;;;;12989136;19;20015;-66
2023/04/23 00:50:26;;;;;;;12.13;6.15;;;;;;;;;;12991498;19;20054;-66
2023/04/23 00:54:44;;;;;;;15.15;6.65;;;;;;;;;;12990921;19;20029;-66
2023/04/23 00:59:02;;;;;;;14.10;6.07;;;;;;;;;;12988381;19;20010;-66
2023/04/23 01:03:20;;;;;;;12.90;6.65;;;;;;;;;;12989437;19;20010;-66
2023/04/23 01:07:39;;;;;;;14.45;6.50;;;;;;;;;;12988442;19;20007;-66
2023/04/23 01:11:57;;;;;;;17.00;6.10;;;;;;;;;;12988930;19;20007;-65
2023/04/23 01:16:15;;;;;;;;;;;;;;;;;;12989369;19;20014;-65
2023/04/23 01:20:34;;;;;;;;;;;;;;;;;;12991135;19;20449;-66
2023/04/23 01:24:51;;;;;;;15.75;6.55;;;;;;;;;;12989077;19;19914;-66
2023/04/23 01:29:10;;;;;;;15.65;6.47;;;;;;;;;;12985790;19;20031;-68
2023/04/23 01:33:28;;;;;;;11.93;5.95;;;;;;;;;;12987750;19;20382;-68
2023/04/23 01:37:47;;;;;;;14.57;5.10;;;;;;;;;;12986419;19;20023;-66
2023/04/23 01:42:06;;;;;;;12.45;5.80;;;;;;;;;;12984492;19;20011;-66
2023/04/23 01:46:24;;;;;;;10.73;4.80;;;;;;;;;;12987717;19;20027;-66
2023/04/23 01:50:42;;;;;;;11.75;5.88;;;;;;;;;;12985881;19;20034;-66
2023/04/23 01:55:01;;;;;;;10.77;5.18;;;;;;;;;;12985308;19;20027;-66
2023/04/23 01:59:21;;;;;;;10.57;5.45;;;;;;;;;;12987726;19;20010;-67
2023/04/23 02:03:39;;;;;;;12.10;5.35;;;;;;;;;;12986361;19;20375;-65
2023/04/23 02:07:57;;;;;;;;;;;;;;;;;;12987397;19;20014;-64
2023/04/23 02:12:14;;;;;;;12.52;5.80;;;;;;;;;;12985965;19;19926;-65
2023/04/23 02:16:33;;;;;;;8.55;4.50;;;;;;;;;;12985660;19;20007;-66
2023/04/23 02:20:51;;;;;;;16.63;5.70;;;;;;;;;;12983803;19;20027;-64
2023/04/23 02:25:09;;;;;;;15.30;5.00;;;;;;;;;;12983618;19;20556;-65
2023/04/23 02:29:27;;;;;;;12.50;5.00;;;;;;;;;;12985218;19;20018;-66
2023/04/23 02:33:45;;;;;;;12.23;5.60;;;;;;;;;;12985214;19;20537;-65
2023/04/23 02:38:03;;;;;;;13.65;5.65;;;;;;;;;;12983841;19;20474;-64
2023/04/23 02:42:21;;;;;;;11.38;4.68;;;;;;;;;;12982232;19;20030;-65
2023/04/23 02:46:39;;;;;;;8.43;5.20;;;;;;;;;;12983227;19;20395;-65
2023/04/23 02:50:56;;;;;;;9.55;4.78;;;;;;;;;;12984772;19;20018;-65
2023/04/23 02:55:14;;;;;;;9.27;5.22;;;;;;;;;;12983615;19;20532;-65
2023/04/23 02:59:32;;;;;;;;;;;;;;;;;;12984248;19;20010;-65
2023/04/23 03:03:50;;;;;;;8.20;4.40;;;;;;;;;;12982768;19;19919;-65
2023/04/23 03:08:08;;;;;;;9.95;4.93;;;;;;;;;;12982109;19;20339;-65
2023/04/23 03:12:26;;;;;;;9.80;4.88;;;;;;;;;;12983272;19;21178;-67
2023/04/23 03:16:43;;;;;;;7.93;4.93;;;;;;;;;;12982673;19;20030;-65
2023/04/23 03:21:01;;;;;;;10.48;5.20;;;;;;;;;;12981715;19;20921;-66
2023/04/23 03:25:21;;;;;;;11.50;5.05;;;;;;;;;;12981918;19;20011;-66
2023/04/23 03:29:38;;;;;;;10.18;5.07;;;;;;;;;;12982751;19;20002;-66
2023/04/23 03:33:56;;;;;;;14.07;5.05;;;;;;;;;;12982897;19;20015;-66
2023/04/23 03:38:14;;;;;;;8.82;5.10;;;;;;;;;;12981474;19;20531;-66
2023/04/23 03:42:33;;;;;;;13.43;5.18;;;;;;;;;;12980680;19;20010;-67
2023/04/23 03:46:51;;;;;;;13.10;5.93;;;;;;;;;;12980845;19;20490;-66
2023/04/23 03:51:09;;;;;;;11.02;4.72;;;;;;;;;;12979261;19;20014;-66
2023/04/23 03:55:27;;;;;;;;;;;;;;;;;;12982691;19;20047;-66
2023/04/23 03:59:44;;;;;;;10.27;5.28;;;;;;;;;;12993750;19;20309;-65
2023/04/23 04:04:02;;;;;;;8.20;5.07;;;;;;;;;;12992116;19;20477;-65
2023/04/23 04:08:21;;;;;;;;;;;;;;;;;;12994027;19;20018;-66
2023/04/23 04:12:40;;;;;;;10.75;4.90;;;;;;;;;;12993857;19;20359;-65
2023/04/23 04:16:58;;;;;;;8.68;4.47;;;;;;;;;;12993439;19;20014;-67
2023/04/23 04:21:17;;;;;;;8.10;4.63;;;;;;;;;;12992918;19;20007;-65
2023/04/23 04:25:38;;;;;;;13.23;5.40;;;;;;;;;;12991793;19;20111;-66
2023/04/23 04:29:56;;;;;;;9.43;5.38;;;;;;;;;;12992183;19;20438;-66
2023/04/23 04:34:14;;;;;;;11.05;4.63;;;;;;;;;;12991632;19;20022;-66
2023/04/23 04:38:32;;;;;;;9.50;4.97;;;;;;;;;;12991676;19;20023;-66
2023/04/23 04:42:51;;;;;;;8.93;4.53;;;;;;;;;;12992431;19;20032;-65
2023/04/23 04:47:09;;;;;;;11.13;4.70;;;;;;;;;;12991000;19;20014;-66
2023/04/23 04:51:27;;;;;;;10.50;5.18;;;;;;;;;;12992218;19;20019;-66
2023/04/23 04:55:45;;;;;;;11.98;4.82;;;;;;;;;;12991873;19;20011;-67
2023/04/23 05:00:28;;;;;;;7.65;4.55;;;;;;;;;;12990254;19;20018;-64
2023/04/23 05:04:46;;;;;;;7.95;4.90;;;;;;;;;;12991249;19;20015;-65
2023/04/23 05:09:03;;;;;;;15.80;5.38;;;;;;;;;;12989927;19;20375;-66
2023/04/23 05:13:21;;;;;;;;;;;;;;;;;;12991975;19;20038;-65
2023/04/23 05:17:40;;;;;;;9.25;4.60;;;;;;;;;;12990280;19;19918;-64
2023/04/23 05:21:57;;;;;;;10.55;4.65;;;;;;;;;;12990066;19;20457;-65
2023/04/23 05:26:17;;;;;;;9.93;4.60;;;;;;;;;;12989628;19;20023;-64
2023/04/23 05:30:35;;;;;;;7.40;4.50;;;;;;;;;;12989440;19;20018;-65
2023/04/23 05:34:53;;;;;;;;;;;;;;;;;;12988606;19;20017;-65
2023/04/23 05:39:11;;;;;;;;;;;;;;;;;;12988719;19;19915;-65
2023/04/23 05:43:28;;;;;;;6.18;4.03;;;;;;;;;;12989165;19;19918;-65
2023/04/23 05:47:46;;;;;;;6.57;4.05;;;;;;;;;;12989364;19;20009;-66
2023/04/23 05:52:04;;;;;;;7.85;4.35;;;;;;;;;;12988046;19;20017;-64
2023/04/23 05:56:21;;;;;;;8.02;4.55;;;;;;;;;;12989064;19;20025;-65
2023/04/23 06:00:39;;;;;;;7.00;4.03;;;;;;;;;;12988630;19;20014;-65
2023/04/23 06:04:57;;;;;;;6.03;4.15;;;;;;;;;;12987609;19;20018;-66
2023/04/23 06:09:15;;;;;;;;;;;;;;;;;;12987764;19;20031;-65
2023/04/23 06:13:35;;;;;;;7.35;3.63;;;;;;;;;;12986965;19;19915;-67
2023/04/23 06:17:56;;;;;;;5.35;3.15;;;;;;;;;;12987074;19;20322;-65
2023/04/23 06:22:14;;;;;;;7.35;3.72;;;;;;;;;;12966894;19;20018;-67
2023/04/23 06:26:32;;;;;;;8.55;4.00;;;;;;;;;;12978579;19;20541;-65
2023/04/23 06:30:50;;;;;;;12.93;3.70;;;;;;;;;;12985733;19;20388;-65
2023/04/23 06:35:08;;;;;;;10.68;3.80;;;;;;;;;;12986249;19;20006;-65
2023/04/23 06:39:32;;;;;;;12.05;3.78;;;;;;;;;;12985965;19;20360;-65
2023/04/23 06:43:52;;;;;;;13.40;4.90;;;;;;;;;;12967702;19;20363;-67
2023/04/23 06:48:10;;;;;;;14.82;5.10;;;;;;;;;;12984747;19;20469;-66
2023/04/23 06:52:31;;;;;;;16.15;5.00;;;;;;;;;;12985046;19;20468;-66
2023/04/23 06:56:49;;;;;;;11.73;3.95;;;;;;;;;;12985316;19;20027;-67
2023/04/23 07:01:10;;;;;;;11.60;4.30;;;;;;;;;;12983422;19;20109;-65
2023/04/23 07:05:28;;;;;;;7.18;4.20;;;;;;;;;;12983802;19;20028;-65
2023/04/23 07:09:46;;;;;;;10.85;4.03;;;;;;;;;;12984555;19;20006;-65
2023/04/23 07:14:05;;;;;;;10.02;3.85;;;;;;;;;;12983146;19;20376;-65
2023/04/23 07:18:22;;;;;;;8.23;4.07;;;;;;;;;;12984496;19;20473;-65
2023/04/23 07:22:40;;;;;;;6.40;3.33;;;;;;;;;;12982076;19;20014;-65
2023/04/23 07:26:58;;;;;;;7.30;3.65;;;;;;;;;;12982790;19;20022;-65
2023/04/23 07:31:17;;;;;;;6.35;3.55;;;;;;;;;;12982193;19;20042;-66
2023/04/23 07:35:35;;;;;;;7.32;2.78;;;;;;;;;;12983794;19;20014;-66
2023/04/23 07:39:52;;;;;;;4.80;3.00;;;;;;;;;;12981708;19;20021;-66
2023/04/23 07:44:13;;;;;;;4.93;2.75;;;;;;;;;;12980869;19;20029;-66
2023/04/23 07:48:32;;;;;;;7.07;2.40;;;;;;;;;;12980614;19;20019;-65
2023/04/23 07:52:52;;;;;;;5.57;2.70;;;;;;;;;;12979109;19;20015;-66
2023/04/23 07:57:11;;;;;;;5.68;2.55;;;;;;;;;;12979901;19;20270;-66
2023/04/23 08:01:28;;;;;;;4.18;2.70;;;;;;;;;;12980961;19;20009;-66
2023/04/23 08:05:46;;;;;;;4.50;2.78;;;;;;;;;;12979670;19;20019;-65
2023/04/23 08:10:05;;;;;;;5.63;2.55;;;;;;;;;;12979683;19;20011;-67
2023/04/23 08:14:22;;;;;;;4.45;2.78;;;;;;;;;;12981451;19;20006;-67
2023/04/23 08:18:40;;;;;;;3.90;2.45;;;;;;;;;;12980188;19;20351;-66
2023/04/23 08:22:58;;;;;;;5.18;2.35;;;;;;;;;;12979929;19;20019;-66
2023/04/23 08:27:16;;;;;;;8.40;2.42;;;;;;;;;;12980057;19;20474;-65
2023/04/23 08:31:34;;;;;;;;;;;;;;;;;;12980225;19;20018;-66
2023/04/23 08:35:52;;;;;;;4.75;2.45;;;;;;;;;;12978598;19;20182;-64
2023/04/23 08:40:10;;;;;;;23.70;20.13;;;;;;;;;;12959059;19;20010;-64
2023/04/23 08:44:30;;;;;;;697.17;595.47;;;;;;;;;;12983511;19;20011;-65
2023/04/23 08:48:51;;;;;;;397.38;359.90;;;;;;;;;;12989373;19;20045;-67
2023/04/23 08:53:09;;;;;;;9.68;8.10;;;;;;;;;;12987788;19;20014;-64
2023/04/23 08:57:28;;;;;;;3.78;2.00;;;;;;;;;;12983895;19;20078;-64
2023/04/23 09:01:46;;;;;;;5.35;1.92;;;;;;;;;;12984990;19;20027;-64
2023/04/23 09:06:05;;;;;;;6.85;2.40;;;;;;;;;;12982940;19;20018;-63
2023/04/23 09:10:23;;;;;;;3.95;1.90;;;;;;;;;;12985082;19;20023;-61
2023/04/23 09:14:41;;;;;;;18.67;15.90;;;;;;;;;;12985527;19;20031;-61
2023/04/23 09:19:00;;;;;;;7.43;3.58;;;;;;;;;;12983770;19;20430;-61
2023/04/23 09:23:20;;;;;;;;;;;;;;;;;;12985153;19;20035;-61
2023/04/23 09:27:39;;;;;;;4.95;2.35;;;;;;;;;;12982389;19;20017;-61
2023/04/23 09:32:07;;;;;;;4.45;2.03;;;;;;;;;;12983464;19;20050;-64
2023/04/23 09:36:26;;;;;;;4.45;2.20;;;;;;;;;;12984191;19;20477;-64
2023/04/23 09:40:44;;;;;;;4.53;2.25;;;;;;;;;;12981119;19;20014;-64
2023/04/23 09:45:11;;;;;;;2.45;1.52;;;;;;;;;;12981334;19;20529;-64
2023/04/23 09:49:29;;;;;;;2.80;2.08;;;;;;;;;;12982209;19;20044;-64
2023/04/23 09:53:46;;;;;;;4.60;2.30;;;;;;;;;;12983380;19;20014;-65
2023/04/23 09:58:09;;;;;;;2.28;1.75;;;;;;;;;;12980068;19;20082;-65
2023/04/23 10:02:27;;;;;;;3.53;1.83;;;;;;;;;;12982118;19;20035;-65
2023/04/23 10:06:57;;;;;;;3.92;2.33;;;;;;;;;;12979963;19;20034;-65
2023/04/23 10:11:35;;;;;;;12.88;2.25;;;;;;;;;;12980624;19;20015;-64
2023/04/23 10:15:55;;;;;;;3.45;2.17;;;;;;;;;;12980682;19;20010;-64
2023/04/23 10:20:22;;;;;;;;;;;;;;;;;;12985591;19;20469;-64
2023/04/23 10:24:40;;;;;;;2.58;2.05;;;;;;;;;;12981130;19;19939;-62
2023/04/23 10:29:00;;;;;;;6.32;2.33;;;;;;;;;;12981399;19;20033;-62
2023/04/23 10:33:19;;;;;;;3.95;1.75;;;;;;;;;;12980426;19;20027;-65
2023/04/23 10:37:49;;;;;;;5.13;2.47;;;;;;;;;;12980227;19;20035;-62
2023/04/23 10:42:07;;;;;;;3.20;1.80;;;;;;;;;;12978794;19;20098;-63
2023/04/23 10:46:30;;;;;;;2.60;1.98;;;;;;;;;;12974796;19;20032;-63
2023/04/23 10:50:58;;;;;;;5.18;1.85;;;;;;;;;;12978997;19;20023;-62
2023/04/23 10:55:36;;;;;;;5.85;1.67;;;;;;;;;;12978831;19;20133;-64
2023/04/23 10:59:55;;;;;;;4.95;2.08;;;;;;;;;;12980082;19;20014;-63
2023/04/23 11:04:27;;;;;;;3.70;2.15;;;;;;;;;;12978135;19;20100;-63
2023/04/23 11:08:57;;;;;;;3.25;1.75;;;;;;;;;;12978103;19;20813;-63
2023/04/23 11:13:23;;;;;;;3.85;1.85;;;;;;;;;;12978144;19;20411;-64
2023/04/23 11:17:41;;;;;;;3.75;1.70;;;;;;;;;;12977905;19;20014;-64
2023/04/23 11:22:07;;;;;;;4.35;1.67;;;;;;;;;;12977570;19;20405;-64
2023/04/23 11:26:29;;;;;;;2.40;1.42;;;;;;;;;;12976650;19;20426;-63
2023/04/23 11:30:52;;;;;;;4.95;1.77;;;;;;;;;;12975841;19;20118;-63
2023/04/23 11:35:12;;;;;;;3.60;1.85;;;;;;;;;;12976505;19;20011;-63
2023/04/23 11:39:30;;;;;;;3.58;1.75;;;;;;;;;;12975542;19;20772;-63
2023/04/23 11:43:52;;;;;;;4.05;1.55;;;;;;;;;;12978155;19;20041;-64
2023/04/23 11:48:10;;;;;;;4.78;1.33;;;;;;;;;;12974549;19;20874;-63
2023/04/23 11:52:27;;;;;;;3.03;1.52;;;;;;;;;;12977355;19;20030;-64
2023/04/23 11:56:45;;;;;;;2.40;1.50;;;;;;;;;;12956605;19;20015;-64
2023/04/23 12:01:03;;;;;;;3.63;1.55;;;;;;;;;;12975919;19;20035;-65
2023/04/23 12:05:28;;;;;;;2.28;1.48;;;;;;;;;;12975554;19;20014;-64
2023/04/23 12:09:48;;;;;;;0.95;0.80;;;;;;;;;;12976259;19;20082;-64
2023/04/23 12:14:07;;;;;;;3.60;1.70;;;;;;;;;;12975905;19;20081;-64
2023/04/23 12:18:43;;;;;;;5.22;1.83;;;;;;;;;;12960320;19;20089;-64
2023/04/23 12:23:05;;;;;;;2.13;1.45;;;;;;;;;;12987542;19;20007;-64
2023/04/23 12:27:23;;;;;;;4.13;1.15;;;;;;;;;;12986594;19;20018;-64
2023/04/23 12:31:43;;;;;;;2.35;1.60;;;;;;;;;;12987950;19;20117;-64
2023/04/23 12:36:00;;;;;;;2.78;1.60;;;;;;;;;;12987864;19;20027;-64
2023/04/23 12:40:20;;;;;;;2.08;1.17;;;;;;;;;;12986678;19;20027;-64
2023/04/23 12:44:38;;;;;;;1.63;1.23;;;;;;;;;;12986393;19;20898;-64
2023/04/23 12:48:59;;;;;;;6.45;1.35;;;;;;;;;;12987306;19;20166;-64
2023/04/23 12:53:19;;;;;;;2.35;1.35;;;;;;;;;;12985636;19;20136;-63
2023/04/23 12:57:37;;;;;;;5.15;1.48;;;;;;;;;;12967667;19;20018;-63
2023/04/23 13:01:55;;;;;;;1.25;1.00;;;;;;;;;;12986131;19;20134;-63
2023/04/23 13:06:13;;;;;;;3.28;1.23;;;;;;;;;;12984975;19;20027;-63
2023/04/23 13:10:31;;;;;;;1.60;1.20;;;;;;;;;;12985492;19;20348;-64
2023/04/23 13:14:49;;;;;;;2.63;1.30;;;;;;;;;;12985748;19;20023;-63
2023/04/23 13:19:08;;;;;;;2.67;1.65;;;;;;;;;;12985154;19;20026;-64
2023/04/23 13:23:26;;;;;;;1.50;1.10;;;;;;;;;;12985425;19;20832;-64
2023/04/23 13:27:43;;;;;;;3.50;1.02;;;;;;;;;;12984040;19;20082;-64
2023/04/23 13:32:01;;;;;;;4.95;1.38;;;;;;;;;;12984035;19;20026;-64
2023/04/23 13:36:19;;;;;;;2.53;1.50;;;;;;;;;;12983718;19;20129;-63
2023/04/23 13:40:37;;;;;;;2.75;1.65;;;;;;;;;;12983517;19;20010;-63
2023/04/23 13:44:55;;;;;;;4.20;1.67;;;;;;;;;;12983601;19;20054;-63
2023/04/23 13:49:13;;;;;;;3.17;1.33;;;;;;;;;;12983220;19;20436;-63
2023/04/23 13:53:31;;;;;;;2.78;1.35;;;;;;;;;;12984042;19;20010;-63
2023/04/23 13:57:49;;;;;;;1.80;1.30;;;;;;;;;;12983149;19;20018;-63
2023/04/23 14:02:06;;;;;;;5.65;1.15;;;;;;;;;;12980649;19;20018;-64
2023/04/23 14:06:26;;;;;;;5.63;1.30;;;;;;;;;;12982977;19;20019;-63
2023/04/23 14:10:43;;;;;;;2.25;1.48;;;;;;;;;;12983628;19;20851;-63
2023/04/23 14:15:01;;;;;;;2.22;1.23;;;;;;;;;;12982612;19;20078;-63
2023/04/23 14:19:19;;;;;;;2.13;0.90;;;;;;;;;;12982078;19;20028;-64
2023/04/23 14:23:46;;;;;;;2.67;1.25;;;;;;;;;;12980601;19;20024;-64
2023/04/23 14:28:27;;;;;;;2.20;1.00;;;;;;;;;;12980515;19;20091;-63
2023/04/23 14:32:45;;;;;;;1.40;1.08;;;;;;;;;;12980618;19;20027;-62
2023/04/23 14:37:06;;;;;;;3.28;1.20;;;;;;;;;;12980615;19;20892;-64
2023/04/23 14:41:24;;;;;;;1.60;1.20;;;;;;;;;;12976181;19;20059;-63
2023/04/23 14:45:42;;;;;;;2.85;1.52;;;;;;;;;;12980327;19;20031;-63
2023/04/23 14:50:00;;;;;;;3.28;1.52;;;;;;;;;;12981415;19;20006;-63
2023/04/23 14:54:17;;;;;;;;;;;;;;;;;;12979809;19;20335;-64
2023/04/23 14:58:35;;;;;;;1.85;1.20;;;;;;;;;;12978756;19;19923;-63
2023/04/23 15:02:53;;;;;;;3.97;2.20;;;;;;;;;;12979801;19;20018;-63
2023/04/23 15:07:10;;;;;;;4.82;1.70;;;;;;;;;;12978104;19;20447;-63
2023/04/23 15:11:28;;;;;;;2.45;1.40;;;;;;;;;;12976267;19;20058;-63
2023/04/23 15:15:50;;;;;;;;;;;;;;;;;;12979048;19;20021;-63
2023/04/23 15:20:08;;;;;;;5.47;2.13;;;;;;;;;;12977293;19;19919;-62
2023/04/23 15:24:26;;;;;;;5.75;3.38;;;;;;;;;;12978246;19;20018;-63
2023/04/23 15:28:44;;;;;;;;;;;;;;;;;;12978797;19;19998;-63
2023/04/23 15:33:01;;;;;;;2.85;1.58;;;;;;;;;;12978792;19;20634;-62
2023/04/23 15:37:23;;;;;;;;;;;;;;;;;;12977898;19;20032;-62
2023/04/23 15:41:40;;;;;;;2.38;1.60;;;;;;;;;;12977518;19;20358;-63
2023/04/23 15:46:01;;;;;;;4.55;2.05;;;;;;;;;;12978222;19;20015;-62
2023/04/23 15:50:21;;;;;;;3.05;1.95;;;;;;;;;;12977573;19;20036;-62
2023/04/23 15:54:39;;;;;;;2.80;1.70;;;;;;;;;;12977273;19;20017;-62
2023/04/23 15:58:57;;;;;;;3.13;1.63;;;;;;;;;;12977603;19;20018;-62
2023/04/23 16:03:15;;;;;;;2.17;1.75;;;;;;;;;;12976564;19;20010;-63
2023/04/23 16:07:33;;;;;;;2.45;1.80;;;;;;;;;;12976423;19;20486;-62
2023/04/23 16:11:53;;;;;;;3.85;2.05;;;;;;;;;;12976474;19;20046;-64
2023/04/23 16:16:11;;;;;;;4.78;2.40;;;;;;;;;;12974552;19;20006;-63
2023/04/23 16:20:28;;;;;;;4.35;2.22;;;;;;;;;;12975390;19;20014;-63
2023/04/23 16:24:46;;;;;;;2.63;1.70;;;;;;;;;;12975160;19;20343;-64
2023/04/23 16:29:06;;;;;;;3.80;1.77;;;;;;;;;;12973749;19;20848;-63
2023/04/23 16:33:39;;;;;;;5.32;2.88;;;;;;;;;;12975430;19;20348;-63
2023/04/23 16:37:59;;;;;;;6.90;2.85;;;;;;;;;;12975413;19;20147;-63
2023/04/23 16:42:17;;;;;;;;;;;;;;;;;;12974995;19;20010;-63
2023/04/23 16:46:38;;;;;;;6.70;2.15;;;;;;;;;;12974050;19;19915;-63
2023/04/23 16:50:56;;;;;;;4.78;2.92;;;;;;;;;;12972802;19;20015;-63
2023/04/23 16:55:14;;;;;;;5.97;3.05;;;;;;;;;;12973957;19;20027;-63
2023/04/23 16:59:32;;;;;;;6.03;3.03;;;;;;;;;;12973993;19;20113;-62
2023/04/23 17:03:50;;;;;;;6.95;2.55;;;;;;;;;;12975692;19;20027;-63
2023/04/23 17:08:08;;;;;;;5.15;2.40;;;;;;;;;;12984632;19;20011;-63
2023/04/23 17:12:26;;;;;;;;;;;;;;;;;;12986443;19;20117;-63
2023/04/23 17:16:44;;;;;;;;;;;;;;;;;;12986261;19;19923;-63
2023/04/23 17:21:02;;;;;;;8.57;2.35;;;;;;;;;;12984435;19;20007;-63
2023/04/23 17:25:20;;;;;;;6.90;3.05;;;;;;;;;;12984435;19;20014;-62
2023/04/23 17:29:38;;;;;;;9.80;4.28;;;;;;;;;;12985847;19;20018;-62
2023/04/23 17:33:56;;;;;;;13.77;2.90;;;;;;;;;;12984737;19;20094;-62
2023/04/23 17:38:18;;;;;;;5.95;2.92;;;;;;;;;;12982776;19;20011;-62
2023/04/23 17:42:36;;;;;;;5.60;3.38;;;;;;;;;;12984034;19;20031;-62
2023/04/23 17:46:54;;;;;;;5.20;3.13;;;;;;;;;;12983413;19;20011;-62
2023/04/23 17:51:11;;;;;;;4.80;2.95;;;;;;;;;;12983314;19;20027;-63
2023/04/23 17:55:31;;;;;;;7.10;3.80;;;;;;;;;;12982752;19;20042;-62
2023/04/23 17:59:52;;;;;;;6.35;2.92;;;;;;;;;;12983421;19;20018;-62
2023/04/23 18:04:10;;;;;;;5.65;3.80;;;;;;;;;;12982110;19;20014;-62
2023/04/23 18:08:30;;;;;;;7.07;3.60;;;;;;;;;;12982142;19;20485;-63
2023/04/23 18:12:48;;;;;;;13.70;5.45;;;;;;;;;;12982322;19;20015;-63
2023/04/23 18:17:06;;;;;;;16.50;6.78;;;;;;;;;;12958370;19;20121;-62
2023/04/23 18:21:30;;;;;;;12.13;5.65;;;;;;;;;;12982885;19;20025;-62
2023/04/23 18:25:48;;;;;;;13.80;6.25;;;;;;;;;;12979431;19;20015;-62
2023/04/23 18:30:07;;;;;;;15.68;5.75;;;;;;;;;;12981320;19;20083;-62
2023/04/23 18:34:35;;;;;;;13.98;6.13;;;;;;;;;;12982470;19;20018;-62
2023/04/23 18:38:53;;;;;;;20.40;7.15;;;;;;;;;;12980531;19;20086;-62
2023/04/23 18:43:11;;;;;;;15.13;6.80;;;;;;;;;;12980259;19;20090;-62
2023/04/23 18:47:37;;;;;;;;;;;;;;;;;;12980512;19;20074;-62
2023/04/23 18:51:55;;;;;;;14.43;6.97;;;;;;;;;;12958716;19;19922;-63
2023/04/23 18:56:13;;;;;;;18.17;7.25;;;;;;;;;;12978469;19;20038;-62
2023/04/23 19:00:32;;;;;;;19.73;7.55;;;;;;;;;;12978354;19;20038;-62
2023/04/23 19:04:50;;;;;;;21.65;8.18;;;;;;;;;;12957185;19;20011;-62
2023/04/23 19:09:08;;;;;;;27.48;10.95;;;;;;;;;;12976140;19;20398;-62
2023/04/23 19:13:26;;;;;;;16.10;7.95;;;;;;;;;;12979269;19;20351;-62
2023/04/23 19:17:44;;;;;;;6.22;3.80;;;;;;;;;;12979794;19;20035;-62
2023/04/23 19:22:04;;;;;;;14.80;6.82;;;;;;;;;;12977475;19;20022;-61
2023/04/23 19:26:22;;;;;;;;;;;;;;;;;;12976955;19;20845;-62
2023/04/23 19:30:40;;;;;;;17.20;8.35;;;;;;;;;;12977795;19;19914;-61
2023/04/23 19:34:58;;;;;;;;;;;;;;;;;;12978077;19;20019;-62
2023/04/23 19:39:21;;;;;;;33.13;10.48;;;;;;;;;;12976603;19;19926;-61
2023/04/23 19:43:40;;;;;;;22.35;8.10;;;;;;;;;;12976862;19;20018;-62
2023/04/23 19:47:58;;;;;;;14.07;6.78;;;;;;;;;;12976807;19;20035;-62
2023/04/23 19:52:26;;;;;;;36.88;12.02;;;;;;;;;;12977815;19;20021;-62
2023/04/23 19:56:44;;;;;;;23.10;8.55;;;;;;;;;;12976589;19;20006;-61
2023/04/23 20:01:05;;;;;;;17.02;7.65;;;;;;;;;;12953200;19;20824;-62
2023/04/23 20:05:22;;;;;;;17.55;7.57;;;;;;;;;;12975258;19;20022;-62
2023/04/23 20:09:43;;;;;;;;;;;;;;;;;;12975542;19;20014;-62
2023/04/23 20:20:06;;;;;;;19.15;8.13;;;;;;;;;;12872206;19;2005888;-62
2023/04/23 20:24:24;;;;;;;18.50;8.25;;;;;;;;;;12974147;19;20022;-62
2023/04/23 20:28:43;;;;;;;16.55;7.95;;;;;;;;;;12973636;19;20018;-62
2023/04/23 20:33:01;;;;;;;22.98;9.50;;;;;;;;;;12973155;19;20079;-62
2023/04/23 20:37:20;;;;;;;25.58;8.95;;;;;;;;;;12973751;19;20018;-62
2023/04/23 20:41:38;;;;;;;20.00;9.05;;;;;;;;;;12983205;19;20129;-61
2023/04/23 20:46:01;;;;;;;22.00;9.25;;;;;;;;;;12986536;19;20465;-61
2023/04/23 20:50:20;;;;;;;24.15;8.82;;;;;;;;;;12985671;19;20045;-63
2023/04/23 20:54:37;;;;;;;20.33;9.20;;;;;;;;;;12985664;19;20052;-63
2023/04/23 20:58:56;;;;;;;23.23;10.43;;;;;;;;;;12985010;19;20019;-63
2023/04/23 21:03:17;;;;;;;26.67;12.38;;;;;;;;;;12961294;19;20017;-61
2023/04/23 21:07:35;;;;;;;22.55;10.38;;;;;;;;;;12980796;19;20932;-61
2023/04/23 21:11:53;;;;;;;27.00;11.02;;;;;;;;;;12961555;19;20011;-61
2023/04/23 21:16:12;;;;;;;24.38;10.95;;;;;;;;;;12982722;19;20095;-62
2023/04/23 21:20:30;;;;;;;33.92;11.68;;;;;;;;;;12983839;19;20030;-62
2023/04/23 21:24:48;;;;;;;24.90;10.05;;;;;;;;;;12983495;19;20106;-62
2023/04/23 21:29:05;;;;;;;27.80;11.70;;;;;;;;;;12981907;19;20006;-62
2023/04/23 21:33:24;;;;;;;23.48;10.98;;;;;;;;;;12983390;19;20022;-62
2023/04/23 21:37:41;;;;;;;28.08;13.05;;;;;;;;;;12983812;19;20879;-62
2023/04/23 21:42:00;;;;;;;26.25;13.18;;;;;;;;;;12982380;19;20006;-62
2023/04/23 21:46:17;;;;;;;;;;;;;;;;;;12983446;19;20018;-62
2023/04/23 21:50:35;;;;;;;27.88;11.38;;;;;;;;;;12982665;19;20066;-61
2023/04/23 21:54:53;;;;;;;26.63;10.80;;;;;;;;;;12983609;19;20007;-61
2023/04/23 21:59:11;;;;;;;21.55;10.95;;;;;;;;;;12981405;19;20018;-62
2023/04/23 22:03:30;;;;;;;26.77;12.25;;;;;;;;;;12982958;19;20108;-62
2023/04/23 22:07:55;;;;;;;25.27;11.80;;;;;;;;;;12981912;19;20022;-61
2023/04/23 22:12:13;;;;;;;22.27;10.30;;;;;;;;;;12980929;19;20022;-61
2023/04/23 22:16:33;;;;;;;19.90;8.32;;;;;;;;;;12981574;19;20686;-61
2023/04/23 22:20:51;;;;;;;17.48;8.63;;;;;;;;;;12981173;19;20014;-61
2023/04/23 22:25:09;;;;;;;16.40;8.38;;;;;;;;;;12979561;19;20074;-62
2023/04/23 22:29:28;;;;;;;17.75;8.27;;;;;;;;;;12979971;19;20032;-62
2023/04/23 22:33:45;;;;;;;17.92;9.00;;;;;;;;;;12980852;19;20035;-61
2023/04/23 22:38:03;;;;;;;18.92;9.15;;;;;;;;;;12979815;19;20019;-62
2023/04/23 22:42:20;;;;;;;23.75;9.50;;;;;;;;;;12979772;19;20021;-62
2023/04/23 22:46:39;;;;;;;17.63;8.55;;;;;;;;;;12979886;19;20078;-61
2023/04/23 22:50:57;;;;;;;23.67;9.80;;;;;;;;;;12977576;19;20006;-61
2023/04/23 22:55:15;;;;;;;20.48;9.90;;;;;;;;;;12978660;19;20103;-61
2023/04/23 22:59:33;;;;;;;21.00;9.43;;;;;;;;;;12978699;19;20078;-62
2023/04/23 23:03:50;;;;;;;20.65;8.85;;;;;;;;;;12977235;19;20036;-62
2023/04/23 23:08:08;;;;;;;21.20;8.55;;;;;;;;;;12977769;19;20086;-62
2023/04/23 23:12:27;;;;;;;23.35;9.65;;;;;;;;;;12978062;19;20030;-62
2023/04/23 23:16:44;;;;;;;23.17;10.07;;;;;;;;;;12978390;19;20099;-62
2023/04/23 23:21:03;;;;;;;25.52;10.00;;;;;;;;;;12977785;19;20931;-62
2023/04/23 23:25:20;;;;;;;23.30;10.65;;;;;;;;;;12978367;19;20038;-61
2023/04/23 23:29:38;;;;;;;20.38;9.45;;;;;;;;;;12975276;19;20014;-61
2023/04/23 23:33:56;;;;;;;26.27;9.63;;;;;;;;;;12976673;19;20031;-61
2023/04/23 23:38:13;;;;;;;20.93;10.30;;;;;;;;;;12973988;19;20022;-61
2023/04/23 23:42:30;;;;;;;20.38;10.43;;;;;;;;;;12975817;19;20018;-61
2023/04/23 23:46:48;;;;;;;26.55;9.55;;;;;;;;;;12976823;19;20918;-61
2023/04/23 23:51:05;;;;;;;21.87;10.40;;;;;;;;;;12973516;19;20532;-61
2023/04/23 23:55:23;;;;;;;23.55;9.98;;;;;;;;;;12976186;19;20028;-61
2023/04/23 23:59:41;;;;;;;23.30;9.85;;;;;;;;;;12975502;19;20011;-62
